Time;durP1;ratioP1;P1;durP2;ratioP2;P2;SDS_P1;SDS_P2;PMS_P1;PMS_P2;Temp;Humidity;BMP_temperature;BMP_pressure;BME280_temperature;BME280_humidity;BME280_pressure;Samples;Min_cycle;Max_cycle;Signal;HPM_P1;HPM_P2
2022/02/06 00:00:26;;;;;;;12.85;7.43;;;;;;;;;;347929;151;857234;-57
2022/02/06 00:01:27;;;;;;;17.09;7.91;;;;;;;;;;349903;151;858580;-56
2022/02/06 00:02:34;;;;;;;17.49;7.26;;;;;;;;;;351210;151;859393;-56
2022/02/06 00:03:32;;;;;;;15.54;7.46;;;;;;;;;;353128;150;867355;-56
2022/02/06 00:04:35;;;;;;;15.01;7.53;;;;;;;;;;345880;152;864884;-56
2022/02/06 00:05:37;;;;;;;16.48;7.30;;;;;;;;;;350987;151;859802;-56
2022/02/06 00:06:39;;;;;;;15.60;7.20;;;;;;;;;;348836;154;857261;-57
2022/02/06 00:07:40;;;;;;;12.68;6.76;;;;;;;;;;348644;151;858830;-56
2022/02/06 00:08:42;;;;;;;14.53;6.80;;;;;;;;;;348502;151;857706;-56
2022/02/06 00:09:46;;;;;;;14.40;6.60;;;;;;;;;;345952;152;866421;-57
2022/02/06 00:10:47;;;;;;;14.11;6.49;;;;;;;;;;354127;150;865089;-56
2022/02/06 00:11:49;;;;;;;14.89;7.01;;;;;;;;;;352365;151;866014;-56
2022/02/06 00:12:50;;;;;;;15.92;6.45;;;;;;;;;;352154;151;857199;-57
2022/02/06 00:13:52;;;;;;;15.44;6.65;;;;;;;;;;351219;150;857558;-56
2022/02/06 00:14:53;;;;;;;18.51;7.60;;;;;;;;;;354210;148;863827;-56
2022/02/06 00:15:55;;;;;;;17.47;7.84;;;;;;;;;;352191;151;857493;-56
2022/02/06 00:16:57;;;;;;;11.98;6.51;;;;;;;;;;351491;151;866743;-56
2022/02/06 00:17:58;;;;;;;14.99;6.89;;;;;;;;;;352222;151;866758;-56
2022/02/06 00:19:00;;;;;;;14.16;6.29;;;;;;;;;;349836;152;858306;-56
2022/02/06 00:20:02;;;;;;;14.46;6.85;;;;;;;;;;349237;153;864862;-57
2022/02/06 00:21:10;;;;;;;20.17;7.43;;;;;;;;;;349890;153;857356;-56
2022/02/06 00:22:10;;;;;;;16.79;6.97;;;;;;;;;;353334;150;857771;-56
2022/02/06 00:23:12;;;;;;;15.09;6.86;;;;;;;;;;351588;151;859296;-55
2022/02/06 00:24:22;;;;;;;18.11;7.33;;;;;;;;;;352810;149;866705;-56
2022/02/06 00:25:34;;;;;;;16.56;7.34;;;;;;;;;;343573;153;857272;-55
2022/02/06 00:26:39;;;;;;;15.46;6.66;;;;;;;;;;345002;154;857547;-56
2022/02/06 00:27:51;;;;;;;16.36;7.25;;;;;;;;;;351263;150;858084;-56
2022/02/06 00:28:46;;;;;;;17.02;7.41;;;;;;;;;;349494;150;859034;-57
2022/02/06 00:29:59;;;;;;;14.79;6.64;;;;;;;;;;353068;150;857100;-56
2022/02/06 00:31:08;;;;;;;15.88;6.77;;;;;;;;;;342227;152;858799;-56
2022/02/06 00:32:05;;;;;;;13.14;6.89;;;;;;;;;;352877;151;859014;-56
2022/02/06 00:33:17;;;;;;;13.66;7.05;;;;;;;;;;351667;150;857350;-56
2022/02/06 00:34:43;;;;;;;13.61;6.95;;;;;;;;;;351410;151;859410;-56
2022/02/06 00:35:35;;;;;;;9.46;5.61;;;;;;;;;;345950;153;859356;-57
2022/02/06 00:39:06;;;;;;;13.96;6.07;;;;;;;;;;352299;150;857162;-57
2022/02/06 00:40:09;;;;;;;11.22;5.99;;;;;;;;;;354372;150;857668;-56
2022/02/06 00:41:22;;;;;;;11.13;5.92;;;;;;;;;;350646;150;858991;-57
2022/02/06 00:42:15;;;;;;;11.14;5.89;;;;;;;;;;344679;153;858304;-56
2022/02/06 00:43:17;;;;;;;14.51;6.16;;;;;;;;;;346130;154;865202;-56
2022/02/06 00:44:18;;;;;;;16.39;6.68;;;;;;;;;;351041;150;865367;-56
2022/02/06 00:45:20;;;;;;;9.82;5.75;;;;;;;;;;352394;149;861652;-55
2022/02/06 00:46:23;;;;;;;10.35;4.65;;;;;;;;;;348632;147;857340;-56
2022/02/06 00:47:26;;;;;;;11.17;5.69;;;;;;;;;;364567;145;857272;-56
2022/02/06 00:48:29;;;;;;;12.61;5.46;;;;;;;;;;359662;147;865425;-56
2022/02/06 00:49:31;;;;;;;13.18;6.27;;;;;;;;;;364064;146;858160;-56
2022/02/06 00:50:36;;;;;;;12.04;6.20;;;;;;;;;;364170;146;857210;-56
2022/02/06 00:51:45;;;;;;;11.58;5.55;;;;;;;;;;360987;146;858923;-56
2022/02/06 00:52:50;;;;;;;10.28;5.51;;;;;;;;;;361908;147;857093;-57
2022/02/06 00:53:43;;;;;;;10.39;5.43;;;;;;;;;;362080;146;857340;-56
2022/02/06 00:54:45;;;;;;;11.73;5.85;;;;;;;;;;361659;145;857267;-56
2022/02/06 00:55:46;;;;;;;9.76;5.11;;;;;;;;;;362094;147;865074;-56
2022/02/06 00:56:48;;;;;;;10.89;5.62;;;;;;;;;;361635;147;857408;-56
2022/02/06 00:57:50;;;;;;;10.71;5.41;;;;;;;;;;355219;148;857510;-56
2022/02/06 00:58:51;;;;;;;5.98;3.73;;;;;;;;;;353932;149;860061;-56
2022/02/06 00:59:53;;;;;;;11.81;5.34;;;;;;;;;;357770;147;859288;-56
2022/02/06 01:00:55;;;;;;;11.49;5.65;;;;;;;;;;362280;146;857194;-55
2022/02/06 01:01:56;;;;;;;14.18;6.44;;;;;;;;;;363606;147;865035;-56
2022/02/06 01:02:58;;;;;;;11.51;5.70;;;;;;;;;;361981;147;864938;-56
2022/02/06 01:04:00;;;;;;;10.45;5.21;;;;;;;;;;355477;150;857208;-56
2022/02/06 01:05:01;;;;;;;11.79;6.14;;;;;;;;;;356921;150;857421;-56
2022/02/06 01:06:03;;;;;;;10.70;5.23;;;;;;;;;;363461;146;866832;-56
2022/02/06 01:07:05;;;;;;;11.52;5.73;;;;;;;;;;362754;146;857354;-56
2022/02/06 01:08:07;;;;;;;11.86;5.09;;;;;;;;;;355547;147;858928;-56
2022/02/06 01:09:09;;;;;;;10.29;5.53;;;;;;;;;;355168;148;860942;-56
2022/02/06 01:10:11;;;;;;;11.90;5.39;;;;;;;;;;355324;148;857261;-56
2022/02/06 01:11:13;;;;;;;13.97;5.33;;;;;;;;;;356166;149;857142;-56
2022/02/06 01:12:19;;;;;;;8.01;4.91;;;;;;;;;;355777;150;857116;-56
2022/02/06 01:13:35;;;;;;;8.88;5.00;;;;;;;;;;358363;150;864728;-56
2022/02/06 01:15:35;;;;;;;12.00;4.84;;;;;;;;;;355638;149;858816;-56
2022/02/06 01:16:41;;;;;;;9.00;4.96;;;;;;;;;;358090;148;860058;-56
2022/02/06 01:17:52;;;;;;;14.23;6.06;;;;;;;;;;357266;150;859711;-56
2022/02/06 01:19:02;;;;;;;9.51;5.13;;;;;;;;;;356946;149;858527;-56
2022/02/06 01:20:07;;;;;;;12.49;4.81;;;;;;;;;;353156;149;857796;-56
2022/02/06 01:21:23;;;;;;;14.91;5.28;;;;;;;;;;355842;149;857122;-56
2022/02/06 01:22:19;;;;;;;11.47;5.56;;;;;;;;;;353115;149;864907;-56
2022/02/06 01:23:46;;;;;;;8.39;4.40;;;;;;;;;;357128;149;858630;-56
2022/02/06 01:24:52;;;;;;;11.38;5.49;;;;;;;;;;352480;150;857182;-57
2022/02/06 01:26:58;;;;;;;8.00;4.57;;;;;;;;;;357392;150;858679;-57
2022/02/06 01:28:05;;;;;;;10.89;5.17;;;;;;;;;;356232;150;856460;-56
2022/02/06 01:29:13;;;;;;;12.91;5.17;;;;;;;;;;354790;150;857162;-56
2022/02/06 01:30:17;;;;;;;11.27;5.01;;;;;;;;;;355677;149;858115;-56
2022/02/06 01:31:44;;;;;;;9.69;4.97;;;;;;;;;;354318;147;857994;-56
2022/02/06 01:32:41;;;;;;;10.71;4.46;;;;;;;;;;352555;150;859640;-57
2022/02/06 01:33:42;;;;;;;10.51;4.97;;;;;;;;;;353730;150;857707;-56
2022/02/06 01:34:45;;;;;;;11.96;5.42;;;;;;;;;;354573;150;857154;-57
2022/02/06 01:36:03;;;;;;;10.56;5.17;;;;;;;;;;352479;150;858772;-56
2022/02/06 01:39:42;;;;;;;12.52;5.45;;;;;;;;;;352891;149;857461;-56
2022/02/06 01:40:57;;;;;;;8.62;5.14;;;;;;;;;;351078;150;859652;-56
2022/02/06 01:41:46;;;;;;;12.02;4.99;;;;;;;;;;353277;149;857641;-56
2022/02/06 01:42:59;;;;;;;11.43;5.52;;;;;;;;;;356929;150;857697;-56
2022/02/06 01:44:01;;;;;;;8.93;3.52;;;;;;;;;;355585;150;865027;-56
2022/02/06 01:45:29;;;;;;;9.90;5.56;;;;;;;;;;354668;149;866298;-56
2022/02/06 01:46:41;;;;;;;10.69;5.50;;;;;;;;;;352032;148;859233;-56
2022/02/06 02:04:40;;;;;;;11.21;5.46;;;;;;;;;;355055;150;866388;-56
2022/02/06 02:10:04;;;;;;;9.19;5.05;;;;;;;;;;357080;148;859273;-57
2022/02/06 02:12:17;;;;;;;8.05;4.74;;;;;;;;;;358730;148;858843;-57
2022/02/06 02:13:27;;;;;;;11.06;5.39;;;;;;;;;;352349;150;867035;-55
2022/02/06 02:16:59;;;;;;;10.56;4.93;;;;;;;;;;338074;156;857863;-55
2022/02/06 02:20:38;;;;;;;11.12;5.28;;;;;;;;;;355331;147;857156;-56
2022/02/06 02:23:02;;;;;;;9.56;5.04;;;;;;;;;;352071;150;857260;-57
2022/02/06 02:24:21;;;;;;;9.82;5.06;;;;;;;;;;354560;150;857546;-56
2022/02/06 02:25:32;;;;;;;7.83;4.42;;;;;;;;;;354686;150;857100;-57
2022/02/06 02:29:31;;;;;;;11.86;4.77;;;;;;;;;;346350;153;857414;-56
2022/02/06 02:31:53;;;;;;;;;;;;;;;;;;358587;148;856719;-57
2022/02/06 02:43:04;;;;;;;8.41;4.79;;;;;;;;;;370599;142;858310;-57
2022/02/06 02:44:53;;;;;;;9.33;4.59;;;;;;;;;;365888;142;858137;-56
2022/02/06 02:46:39;;;;;;;10.49;4.77;;;;;;;;;;368530;143;859298;-57
2022/02/06 02:47:36;;;;;;;11.79;5.17;;;;;;;;;;369579;142;857683;-56
2022/02/06 02:48:41;;;;;;;7.81;4.40;;;;;;;;;;368904;144;857050;-56
2022/02/06 02:49:49;;;;;;;7.95;4.89;;;;;;;;;;373482;142;857073;-56
2022/02/06 02:50:53;;;;;;;10.07;4.94;;;;;;;;;;372137;142;857163;-56
2022/02/06 02:51:51;;;;;;;10.36;4.93;;;;;;;;;;370576;143;860576;-56
2022/02/06 02:53:06;;;;;;;9.28;4.50;;;;;;;;;;370073;141;858983;-57
2022/02/06 02:54:05;;;;;;;10.12;4.93;;;;;;;;;;367808;144;857405;-57
2022/02/06 02:55:37;;;;;;;6.58;3.84;;;;;;;;;;371588;143;859645;-57
2022/02/06 02:56:38;;;;;;;9.36;5.08;;;;;;;;;;366922;142;858761;-57
2022/02/06 02:57:41;;;;;;;9.78;5.08;;;;;;;;;;368500;142;858203;-58
2022/02/06 02:59:59;;;;;;;12.17;4.71;;;;;;;;;;369919;142;857686;-56
2022/02/06 03:00:57;;;;;;;8.33;4.48;;;;;;;;;;368793;142;866089;-57
2022/02/06 03:01:57;;;;;;;7.76;4.68;;;;;;;;;;373656;142;858036;-56
2022/02/06 03:03:12;;;;;;;8.83;4.69;;;;;;;;;;370743;142;857361;-56
2022/02/06 03:04:00;;;;;;;7.91;4.61;;;;;;;;;;369465;144;864668;-56
2022/02/06 03:05:04;;;;;;;10.99;5.31;;;;;;;;;;373270;144;857245;-56
2022/02/06 03:06:06;;;;;;;9.24;3.80;;;;;;;;;;372591;142;865005;-55
2022/02/06 03:07:08;;;;;;;8.61;4.63;;;;;;;;;;370680;142;860433;-55
2022/02/06 03:08:10;;;;;;;7.60;4.34;;;;;;;;;;371048;142;857302;-55
2022/02/06 03:09:12;;;;;;;10.56;4.76;;;;;;;;;;372894;143;866494;-56
2022/02/06 03:10:14;;;;;;;8.15;4.92;;;;;;;;;;372742;142;857289;-55
2022/02/06 03:11:16;;;;;;;10.98;4.85;;;;;;;;;;372610;142;858040;-55
2022/02/06 03:12:24;;;;;;;9.15;5.02;;;;;;;;;;372656;142;866729;-56
2022/02/06 03:13:24;;;;;;;9.09;4.86;;;;;;;;;;370204;144;857272;-58
2022/02/06 03:14:39;;;;;;;10.17;5.12;;;;;;;;;;370449;142;857148;-58
2022/02/06 03:15:44;;;;;;;9.21;4.12;;;;;;;;;;369405;142;859242;-56
2022/02/06 03:17:01;;;;;;;8.68;4.49;;;;;;;;;;366348;143;857200;-56
2022/02/06 03:18:00;;;;;;;10.73;4.83;;;;;;;;;;369604;142;857581;-56
2022/02/06 03:19:09;;;;;;;10.52;5.31;;;;;;;;;;372267;144;857723;-56
2022/02/06 03:20:11;;;;;;;10.80;5.28;;;;;;;;;;370246;144;857937;-56
2022/02/06 03:21:19;;;;;;;8.64;4.38;;;;;;;;;;371525;141;859092;-55
2022/02/06 03:22:24;;;;;;;10.09;4.76;;;;;;;;;;364293;146;859226;-56
2022/02/06 03:23:19;;;;;;;7.61;4.62;;;;;;;;;;361414;145;857275;-55
2022/02/06 03:24:24;;;;;;;7.95;5.05;;;;;;;;;;364102;146;857209;-56
2022/02/06 03:25:26;;;;;;;7.69;4.21;;;;;;;;;;362771;145;865122;-56
2022/02/06 03:26:28;;;;;;;7.81;4.48;;;;;;;;;;364717;146;857228;-55
2022/02/06 03:27:29;;;;;;;7.36;4.87;;;;;;;;;;357894;148;858600;-55
2022/02/06 03:28:31;;;;;;;6.16;3.81;;;;;;;;;;364111;147;857829;-56
2022/02/06 03:29:32;;;;;;;6.11;3.93;;;;;;;;;;360407;147;860326;-55
2022/02/06 03:30:34;;;;;;;7.58;4.37;;;;;;;;;;355115;148;859411;-55
2022/02/06 03:31:37;;;;;;;8.72;4.34;;;;;;;;;;357633;147;867590;-55
2022/02/06 03:32:39;;;;;;;8.74;4.96;;;;;;;;;;357476;147;858136;-55
2022/02/06 03:33:40;;;;;;;10.34;4.82;;;;;;;;;;359839;148;857136;-55
2022/02/06 03:34:42;;;;;;;9.38;4.63;;;;;;;;;;356807;147;863826;-55
2022/02/06 03:35:43;;;;;;;8.77;4.77;;;;;;;;;;355173;147;857169;-54
2022/02/06 03:36:45;;;;;;;7.84;4.66;;;;;;;;;;351505;149;857220;-55
2022/02/06 03:37:47;;;;;;;7.26;4.84;;;;;;;;;;360927;146;864752;-55
2022/02/06 03:38:51;;;;;;;8.84;4.71;;;;;;;;;;362573;146;857406;-55
2022/02/06 03:39:54;;;;;;;9.38;4.94;;;;;;;;;;359439;146;864772;-56
2022/02/06 03:41:02;;;;;;;7.69;3.45;;;;;;;;;;363512;147;866318;-55
2022/02/06 03:42:09;;;;;;;9.73;4.89;;;;;;;;;;363534;146;866163;-55
2022/02/06 03:43:23;;;;;;;8.90;4.81;;;;;;;;;;362830;147;865180;-55
2022/02/06 03:44:36;;;;;;;8.89;5.01;;;;;;;;;;363183;146;857286;-56
2022/02/06 03:45:39;;;;;;;8.27;4.98;;;;;;;;;;356301;148;857441;-56
2022/02/06 03:46:43;;;;;;;10.46;5.74;;;;;;;;;;356382;147;860138;-56
2022/02/06 03:47:53;;;;;;;8.59;5.24;;;;;;;;;;363235;146;866142;-56
2022/02/06 03:48:55;;;;;;;9.60;5.46;;;;;;;;;;358868;145;858112;-57
2022/02/06 03:50:04;;;;;;;8.83;5.29;;;;;;;;;;358519;145;858614;-55
2022/02/06 03:51:06;;;;;;;9.97;5.27;;;;;;;;;;360600;146;860117;-55
2022/02/06 03:52:04;;;;;;;9.34;5.36;;;;;;;;;;356346;146;859320;-55
2022/02/06 03:53:05;;;;;;;10.19;5.30;;;;;;;;;;355611;149;857839;-55
2022/02/06 03:54:08;;;;;;;8.16;4.97;;;;;;;;;;360572;145;858214;-56
2022/02/06 03:55:18;;;;;;;9.24;5.08;;;;;;;;;;356021;149;857408;-55
2022/02/06 03:56:14;;;;;;;11.66;5.08;;;;;;;;;;354361;150;860373;-56
2022/02/06 03:57:16;;;;;;;7.41;4.66;;;;;;;;;;355506;149;857525;-56
2022/02/06 03:58:17;;;;;;;8.36;5.13;;;;;;;;;;356358;149;857306;-56
2022/02/06 03:59:19;;;;;;;11.37;5.26;;;;;;;;;;356484;150;857630;-56
2022/02/06 04:00:24;;;;;;;8.12;4.65;;;;;;;;;;356389;150;860214;-56
2022/02/06 04:01:25;;;;;;;10.63;5.54;;;;;;;;;;352788;148;860086;-55
2022/02/06 04:02:26;;;;;;;6.54;4.82;;;;;;;;;;361667;146;866764;-55
2022/02/06 04:03:28;;;;;;;10.09;5.35;;;;;;;;;;360076;147;866848;-56
2022/02/06 04:04:30;;;;;;;10.28;4.61;;;;;;;;;;363320;147;865569;-55
2022/02/06 04:05:31;;;;;;;8.99;5.21;;;;;;;;;;362697;146;857631;-56
2022/02/06 04:06:33;;;;;;;8.59;4.89;;;;;;;;;;361836;147;861893;-56
2022/02/06 04:07:35;;;;;;;7.96;4.81;;;;;;;;;;362525;147;858736;-56
2022/02/06 04:08:38;;;;;;;9.17;4.87;;;;;;;;;;362214;148;859365;-56
2022/02/06 04:09:47;;;;;;;8.46;4.51;;;;;;;;;;359557;147;858119;-56
2022/02/06 04:10:48;;;;;;;9.82;4.39;;;;;;;;;;363093;145;859309;-56
2022/02/06 04:11:50;;;;;;;11.93;4.87;;;;;;;;;;363236;146;857289;-56
2022/02/06 04:12:50;;;;;;;10.15;4.33;;;;;;;;;;357231;148;857233;-56
2022/02/06 04:14:09;;;;;;;8.39;5.34;;;;;;;;;;357546;147;858926;-56
2022/02/06 04:15:14;;;;;;;8.76;4.86;;;;;;;;;;354028;148;857168;-56
2022/02/06 04:16:16;;;;;;;7.71;4.53;;;;;;;;;;353035;147;859005;-56
2022/02/06 04:17:22;;;;;;;10.36;4.97;;;;;;;;;;357366;147;858550;-55
2022/02/06 04:18:30;;;;;;;9.32;5.14;;;;;;;;;;356115;148;857598;-55
2022/02/06 04:19:26;;;;;;;13.91;5.71;;;;;;;;;;352419;150;857204;-56
2022/02/06 04:20:28;;;;;;;8.68;5.02;;;;;;;0.83;100.00;161810.36;355272;150;857124;-56
2022/02/06 04:21:30;;;;;;;8.10;4.38;;;;;;;;;;355524;147;857095;-56
2022/02/06 04:22:31;;;;;;;8.59;4.13;;;;;;;;;;356571;149;857752;-56
2022/02/06 04:23:33;;;;;;;9.49;4.94;;;;;;;;;;353193;152;859284;-56
2022/02/06 04:24:35;;;;;;;7.73;4.58;;;;;;;;;;360543;146;866610;-56
2022/02/06 04:25:36;;;;;;;11.41;5.26;;;;;;;;;;361366;145;857481;-56
2022/02/06 04:26:38;;;;;;;9.56;5.09;;;;;;;;;;363005;145;865651;-56
2022/02/06 04:27:40;;;;;;;10.77;5.20;;;;;;;;;;363225;145;857615;-56
2022/02/06 04:28:41;;;;;;;10.04;5.11;;;;;;;;;;362545;145;857512;-57
2022/02/06 04:29:43;;;;;;;9.56;5.37;;;;;;;;;;362309;147;864878;-57
2022/02/06 04:30:45;;;;;;;12.59;5.44;;;;;;;;;;353520;151;857414;-56
2022/02/06 04:31:49;;;;;;;13.11;5.03;;;;;;;;;;362531;147;866700;-56
2022/02/06 04:32:50;;;;;;;7.53;4.18;;;;;;;;;;360445;147;856131;-57
2022/02/06 04:33:52;;;;;;;7.49;4.36;;;;;;;;;;360265;146;857642;-57
2022/02/06 04:34:55;;;;;;;9.71;4.67;;;;;;;;;;360210;147;864686;-56
2022/02/06 04:35:59;;;;;;;10.24;5.41;;;;;;;;;;361674;147;856684;-56
2022/02/06 04:37:08;;;;;;;7.83;4.97;;;;;;;;;;361571;147;856570;-56
2022/02/06 04:38:29;;;;;;;9.02;4.56;;;;;;;;;;359784;147;856053;-57
2022/02/06 04:39:34;;;;;;;10.08;4.76;;;;;;;;;;359066;147;856460;-57
2022/02/06 04:40:39;;;;;;;9.78;4.69;;;;;;;;;;359263;147;857233;-56
2022/02/06 04:49:03;;;;;;;8.54;4.92;;;;;;;;;;353404;149;856333;-56
2022/02/06 05:18:40;;;;;;;11.69;5.22;;;;;;;;;;357073;150;866455;-58
2022/02/06 05:21:15;;;;;;;9.76;5.29;;;;;;;;;;353326;150;857127;-58
2022/02/06 05:22:24;;;;;;;11.86;5.62;;;;;;;;;;353850;151;865775;-58
2022/02/06 05:25:43;;;;;;;9.62;4.94;;;;;;;;;;354464;149;857781;-57
2022/02/06 05:28:01;;;;;;;13.29;5.67;;;;;;;;;;353550;150;858456;-57
2022/02/06 05:30:13;;;;;;;10.48;5.34;;;;;;;;;;356835;149;857258;-59
2022/02/06 05:31:15;;;;;;;9.50;5.42;;;;;;;;;;357937;149;857209;-57
2022/02/06 05:33:18;;;;;;;13.06;5.80;;;;;;;;;;358128;150;857571;-57
2022/02/06 05:34:20;;;;;;;9.59;5.58;;;;;;;;;;357205;149;858273;-57
2022/02/06 05:35:22;;;;;;;12.89;5.80;;;;;;;;;;349979;152;864748;-58
2022/02/06 05:36:24;;;;;;;10.87;5.39;;;;;;;;;;356883;150;857410;-57
2022/02/06 05:37:26;;;;;;;11.99;5.78;;;;;;;;;;357728;150;857295;-58
2022/02/06 05:38:28;;;;;;;8.89;5.34;;;;;;;;;;355410;150;866562;-57
2022/02/06 05:39:29;;;;;;;14.78;6.21;;;;;;;;;;350635;152;857228;-58
2022/02/06 05:40:31;;;;;;;10.98;5.91;;;;;;;;;;356602;149;866780;-57
2022/02/06 05:41:35;;;;;;;12.03;5.98;;;;;;;;;;357427;149;865117;-58
2022/02/06 05:42:36;;;;;;;12.06;6.78;;;;;;;;;;356353;150;857105;-58
2022/02/06 05:43:38;;;;;;;15.49;6.24;;;;;;;;;;357864;150;867071;-56
2022/02/06 05:44:42;;;;;;;14.19;6.94;;;;;;;;;;356651;149;857644;-57
2022/02/06 05:45:43;;;;;;;13.35;6.71;;;;;;;;;;357439;150;859407;-57
2022/02/06 05:46:44;;;;;;;16.52;7.77;;;;;;;;;;354605;149;857178;-57
2022/02/06 05:47:46;;;;;;;15.97;7.66;;;;;;;;;;356088;149;858834;-57
2022/02/06 05:48:48;;;;;;;11.62;6.23;;;;;;;;;;357111;149;865732;-57
2022/02/06 05:49:50;;;;;;;15.69;6.84;;;;;;;;;;355534;150;864913;-57
2022/02/06 05:50:51;;;;;;;12.36;6.58;;;;;;;;;;356908;149;857507;-58
2022/02/06 05:51:53;;;;;;;13.27;6.78;;;;;;;;;;357722;149;857113;-59
2022/02/06 05:52:54;;;;;;;13.49;6.64;;;;;;;;;;357459;150;857868;-57
2022/02/06 05:53:56;;;;;;;15.51;6.79;;;;;;;;;;356962;149;857501;-56
2022/02/06 05:54:58;;;;;;;12.62;6.41;;;;;;;;;;355607;150;857342;-58
2022/02/06 05:55:59;;;;;;;13.31;7.37;;;;;;;;;;355704;149;857281;-59
2022/02/06 05:57:01;;;;;;;15.39;7.47;;;;;;;;;;356541;150;858680;-59
2022/02/06 05:58:03;;;;;;;13.58;7.24;;;;;;;;;;358442;149;866274;-59
2022/02/06 05:59:04;;;;;;;13.36;7.16;;;;;;;;;;356947;150;865241;-59
2022/02/06 06:00:07;;;;;;;12.70;6.97;;;;;;;;;;358936;149;857400;-60
2022/02/06 06:01:09;;;;;;;12.09;6.97;;;;;;;;;;357348;147;857811;-56
2022/02/06 06:02:10;;;;;;;12.35;7.04;;;;;;;;;;356819;149;859787;-56
2022/02/06 06:03:12;;;;;;;13.94;7.14;;;;;;;;;;355943;149;857324;-59
2022/02/06 06:04:13;;;;;;;12.44;7.70;;;;;;;;;;356052;150;857427;-57
2022/02/06 06:05:15;;;;;;;13.84;6.91;;;;;;;;;;358577;149;859453;-58
2022/02/06 06:06:18;;;;;;;13.65;7.11;;;;;;;;;;355860;149;860795;-60
2022/02/06 06:07:20;;;;;;;13.72;7.78;;;;;;;;;;357413;149;857599;-55
2022/02/06 06:08:21;;;;;;;13.81;7.61;;;;;;;;;;354968;149;865865;-61
2022/02/06 06:09:23;;;;;;;13.14;7.12;;;;;;;;;;358493;149;857711;-64
2022/02/06 06:10:26;;;;;;;12.54;7.52;;;;;;;;;;356722;149;860305;-57
2022/02/06 06:11:27;;;;;;;13.28;7.11;;;;;;;;;;358819;148;858780;-58
2022/02/06 06:12:29;;;;;;;14.25;8.05;;;;;;;;;;354267;149;866413;-57
2022/02/06 06:13:31;;;;;;;13.06;6.75;;;;;;;;;;354741;149;857770;-56
2022/02/06 06:14:32;;;;;;;15.96;7.61;;;;;;;;;;357099;148;857464;-57
2022/02/06 06:15:34;;;;;;;14.86;7.26;;;;;;;;;;357526;149;857372;-55
2022/02/06 06:16:35;;;;;;;15.35;8.11;;;;;;;;;;357961;150;859676;-56
2022/02/06 06:17:37;;;;;;;15.99;8.46;;;;;;;;;;358070;148;857779;-57
2022/02/06 06:18:39;;;;;;;11.82;7.69;;;;;;;;;;357630;149;864956;-59
2022/02/06 06:19:47;;;;;;;12.87;7.31;;;;;;;;;;358783;149;857179;-58
2022/02/06 06:20:48;;;;;;;16.14;8.42;;;;;;;;;;354867;149;857161;-57
2022/02/06 06:21:57;;;;;;;16.93;8.33;;;;;;;;;;358227;149;857251;-58
2022/02/06 06:22:59;;;;;;;24.86;11.18;;;;;;;;;;352747;149;858994;-56
2022/02/06 06:24:01;;;;;;;24.75;11.15;;;;;;;;;;356775;149;857297;-59
2022/02/06 06:25:03;;;;;;;24.73;12.39;;;;;;;;;;356894;149;858589;-59
2022/02/06 06:26:05;;;;;;;24.55;12.36;;;;;;;;;;357647;149;864723;-55
2022/02/06 06:27:07;;;;;;;23.68;11.85;;;;;;;;;;356771;149;858318;-55
2022/02/06 06:28:09;;;;;;;20.58;10.94;;;;;;;;;;357411;149;866079;-56
2022/02/06 06:29:10;;;;;;;20.12;10.42;;;;;;;;;;355369;150;857571;-61
2022/02/06 06:30:13;;;;;;;20.66;10.60;;;;;;;;;;358525;150;857826;-58
2022/02/06 06:31:14;;;;;;;17.76;8.82;;;;;;;;;;356465;149;867282;-58
2022/02/06 06:32:16;;;;;;;16.59;10.09;;;;;;;;;;358319;150;859977;-59
2022/02/06 06:33:18;;;;;;;14.86;8.88;;;;;;;;;;355842;149;857264;-56
2022/02/06 06:34:19;;;;;;;14.99;8.33;;;;;;;;;;355767;149;859080;-57
2022/02/06 06:35:21;;;;;;;15.86;8.90;;;;;;;;;;355584;149;857313;-57
2022/02/06 06:36:23;;;;;;;14.49;8.07;;;;;;;;;;348851;153;857321;-56
2022/02/06 06:37:24;;;;;;;17.68;7.97;;;;;;;;;;356154;150;857654;-57
2022/02/06 06:38:26;;;;;;;15.64;8.09;;;;;;;;;;356735;149;866756;-57
2022/02/06 06:39:38;;;;;;;18.32;8.66;;;;;;;;;;357694;150;864872;-57
2022/02/06 06:40:37;;;;;;;14.51;8.13;;;;;;;;;;357485;150;865455;-57
2022/02/06 06:41:39;;;;;;;14.11;8.18;;;;;;;;;;356290;149;857605;-57
2022/02/06 06:42:41;;;;;;;13.81;7.81;;;;;;;;;;353581;150;865684;-57
2022/02/06 06:43:43;;;;;;;14.54;8.23;;;;;;;;;;355673;150;861617;-56
2022/02/06 06:44:44;;;;;;;15.74;7.94;;;;;;;;;;356295;148;858844;-56
2022/02/06 06:45:46;;;;;;;12.61;7.40;;;;;;;;;;356753;149;859995;-56
2022/02/06 06:46:47;;;;;;;17.29;8.18;;;;;;;;;;356212;149;857341;-57
2022/02/06 06:47:50;;;;;;;15.68;7.99;;;;;;;;;;355735;149;865012;-57
2022/02/06 06:48:51;;;;;;;13.93;7.92;;;;;;;;;;358717;148;865205;-56
2022/02/06 06:49:53;;;;;;;16.41;7.99;;;;;;;;;;358853;148;865032;-57
2022/02/06 06:50:55;;;;;;;12.34;7.65;;;;;;;;;;356066;150;865076;-57
2022/02/06 06:51:57;;;;;;;15.96;8.22;;;;;;;;;;355872;149;865610;-56
2022/02/06 06:52:59;;;;;;;15.53;7.63;;;;;;;;;;355261;149;865421;-56
2022/02/06 06:54:01;;;;;;;15.85;8.31;;;;;;;;;;355991;149;858006;-57
2022/02/06 06:55:04;;;;;;;15.43;7.74;;;;;;;;;;355408;149;859048;-57
2022/02/06 06:56:26;;;;;;;13.73;7.87;;;;;;;;;;353597;149;863351;-57
2022/02/06 06:58:25;;;;;;;14.35;7.31;;;;;;;;;;352261;150;857292;-57
2022/02/06 07:01:08;;;;;;;13.66;8.17;;;;;;;;;;357757;148;857697;-57
2022/02/06 07:02:32;;;;;;;13.74;8.02;;;;;;;;;;354992;150;857736;-57
2022/02/06 07:03:09;;;;;;;10.81;6.68;;;;;;;;;;352874;150;859576;-58
2022/02/06 07:04:10;;;;;;;11.84;7.24;;;;;;;;;;354788;149;858195;-59
2022/02/06 07:05:12;;;;;;;15.16;7.26;;;;;;;;;;356176;149;857356;-59
2022/02/06 07:06:14;;;;;;;11.61;7.20;;;;;;;;;;357991;148;857382;-58
2022/02/06 07:07:17;;;;;;;14.48;7.59;;;;;;;;;;355556;149;857173;-58
2022/02/06 07:08:19;;;;;;;12.95;6.99;;;;;;;;;;357900;149;857412;-58
2022/02/06 07:09:21;;;;;;;14.82;7.56;;;;;;;;;;356863;150;857208;-61
2022/02/06 07:10:23;;;;;;;14.10;7.40;;;;;;;;;;354995;150;865486;-58
2022/02/06 07:11:26;;;;;;;12.95;7.53;;;;;;;;;;357874;147;857178;-61
2022/02/06 07:12:28;;;;;;;14.27;6.96;;;;;;;;;;358662;148;866444;-58
2022/02/06 07:13:29;;;;;;;12.37;6.91;;;;;;;;;;357430;148;857229;-60
2022/02/06 07:14:32;;;;;;;11.15;6.76;;;;;;;;;;355977;148;866751;-59
2022/02/06 07:15:33;;;;;;;11.41;6.17;;;;;;;;;;357446;149;857528;-59
2022/02/06 07:16:35;;;;;;;10.43;5.90;;;;;;;;;;357632;148;865040;-58
2022/02/06 07:17:36;;;;;;;12.88;6.23;;;;;;;;;;357295;149;866668;-59
2022/02/06 07:18:38;;;;;;;14.47;6.62;;;;;;;;;;355882;150;859140;-59
2022/02/06 07:19:40;;;;;;;15.29;6.75;;;;;;;;;;354862;149;864996;-59
2022/02/06 07:20:42;;;;;;;9.96;5.97;;;;;;;;;;357232;149;857298;-58
2022/02/06 07:21:43;;;;;;;14.83;6.16;;;;;;;;;;357438;149;858991;-58
2022/02/06 07:22:45;;;;;;;12.66;6.30;;;;;;;;;;356779;148;865457;-57
2022/02/06 07:23:47;;;;;;;10.11;6.41;;;;;;;;;;358025;149;865326;-58
2022/02/06 07:24:49;;;;;;;13.54;5.84;;;;;;;;;;357685;149;857223;-58
2022/02/06 07:25:53;;;;;;;12.77;5.49;;;;;;;;;;356034;149;860881;-58
2022/02/06 07:26:58;;;;;;;9.52;6.22;;;;;;;;;;353398;149;865076;-58
2022/02/06 07:27:58;;;;;;;11.68;6.55;;;;;;;;;;359664;141;864130;-57
2022/02/06 07:29:01;;;;;;;13.64;5.90;;;;;;;;;;370078;143;857204;-58
2022/02/06 07:30:05;;;;;;;10.86;6.41;;;;;;;;;;366795;145;865617;-58
2022/02/06 07:31:06;;;;;;;10.55;5.96;;;;;;;;;;367787;144;864988;-58
2022/02/06 07:32:08;;;;;;;11.51;5.94;;;;;;;;;;368342;144;865837;-58
2022/02/06 07:33:11;;;;;;;12.63;6.21;;;;;;;;;;367062;145;865566;-60
2022/02/06 07:34:13;;;;;;;11.95;6.66;;;;;;;;;;366405;143;859286;-59
2022/02/06 07:35:14;;;;;;;8.61;5.87;;;;;;;;;;362664;147;857382;-58
2022/02/06 07:36:18;;;;;;;12.57;6.73;;;;;;;;;;363334;145;866148;-56
2022/02/06 07:37:19;;;;;;;12.31;6.11;;;;;;;;;;363922;147;858214;-60
2022/02/06 07:38:21;;;;;;;9.92;5.21;;;;;;;;;;363668;147;859117;-59
2022/02/06 07:39:22;;;;;;;11.54;6.20;;;;;;;;;;364432;147;860904;-58
2022/02/06 07:40:25;;;;;;;10.00;5.24;;;;;;;;;;363603;144;860346;-58
2022/02/06 07:41:27;;;;;;;11.41;6.11;;;;;;;;;;363352;147;866184;-58
2022/02/06 07:42:28;;;;;;;13.46;5.67;;;;;;;;;;363687;146;861167;-56
2022/02/06 07:43:30;;;;;;;9.99;5.56;;;;;;;;;;358775;147;864947;-58
2022/02/06 07:44:31;;;;;;;12.17;5.94;;;;;;;;;;362202;147;865953;-59
2022/02/06 07:45:36;;;;;;;10.51;5.96;;;;;;;;;;362621;147;860597;-59
2022/02/06 07:46:46;;;;;;;13.24;5.42;;;;;;;;;;363418;145;856623;-59
2022/02/06 07:47:47;;;;;;;11.80;5.78;;;;;;;;;;363663;145;866120;-59
2022/02/06 07:48:49;;;;;;;8.07;4.87;;;;;;;;;;363142;145;857615;-57
2022/02/06 07:49:52;;;;;;;12.01;6.26;;;;;;;;;;361380;147;866099;-59